createdAt,value
2018-04-14T00:02:01.497Z,11.91
2018-04-14T00:04:29.081Z,11.95
2018-04-14T00:06:56.692Z,11.91
2018-04-14T00:09:24.276Z,11.77
2018-04-14T00:11:51.922Z,11.75
2018-04-14T00:14:19.583Z,11.80
2018-04-14T00:16:47.255Z,11.71
2018-04-14T00:19:14.844Z,11.66
2018-04-14T00:21:42.472Z,11.69
2018-04-14T00:24:10.089Z,11.75
2018-04-14T00:26:37.711Z,11.67
2018-04-14T00:29:05.892Z,11.74
2018-04-14T00:31:33.524Z,11.66
2018-04-14T00:34:01.106Z,11.66
2018-04-14T00:36:29.319Z,11.58
2018-04-14T00:38:56.902Z,11.57
2018-04-14T00:41:24.490Z,11.58
2018-04-14T00:43:52.112Z,11.56
2018-04-14T00:46:19.698Z,11.54
2018-04-14T00:48:47.345Z,11.55
2018-04-14T00:51:14.938Z,11.52
2018-04-14T00:53:48.583Z,11.58
2018-04-14T00:56:16.201Z,11.50
2018-04-14T00:58:43.789Z,11.54
2018-04-14T01:01:11.374Z,11.45
2018-04-14T01:03:38.958Z,11.49
2018-04-14T01:06:06.541Z,11.54
2018-04-14T01:08:34.125Z,11.45
2018-04-14T01:11:01.755Z,11.37
2018-04-14T01:13:29.386Z,11.40
2018-04-14T01:15:56.974Z,11.32
2018-04-14T01:18:24.556Z,11.41
2018-04-14T01:20:52.141Z,11.35
2018-04-14T01:23:19.883Z,11.42
2018-04-14T01:25:47.470Z,11.40
2018-04-14T01:28:15.056Z,11.37
2018-04-14T01:30:42.640Z,11.32
2018-04-14T01:33:10.252Z,11.37
2018-04-14T01:35:37.841Z,11.39
2018-04-14T01:38:06.293Z,11.28
2018-04-14T01:40:34.650Z,11.28
2018-04-14T01:43:02.984Z,11.30
2018-04-14T01:45:30.570Z,11.30
2018-04-14T01:47:58.157Z,11.28
2018-04-14T01:50:25.739Z,11.31
2018-04-14T01:52:53.353Z,11.37
2018-04-14T01:55:20.957Z,11.36
2018-04-14T01:57:48.580Z,11.30
2018-04-14T02:00:16.186Z,11.24
2018-04-14T02:05:17.593Z,11.40
2018-04-14T02:07:45.203Z,11.34
2018-04-14T02:10:12.785Z,11.31
2018-04-14T02:12:40.398Z,11.26
2018-04-14T02:15:07.983Z,11.27
2018-04-14T02:17:35.596Z,11.25
2018-04-14T02:20:03.186Z,11.28
2018-04-14T02:22:30.805Z,11.42
2018-04-14T02:24:58.390Z,11.30
2018-04-14T02:27:25.992Z,11.36
2018-04-14T02:29:53.616Z,11.30
2018-04-14T02:32:22.178Z,11.24
2018-04-14T02:34:49.769Z,11.36
2018-04-14T02:37:17.405Z,11.30
2018-04-14T02:39:45.017Z,11.28
2018-04-14T02:42:12.607Z,11.22
2018-04-14T02:44:40.213Z,11.20
2018-04-14T02:47:07.802Z,11.26
2018-04-14T02:49:35.445Z,11.26
2018-04-14T02:52:03.025Z,11.24
2018-04-14T02:54:30.876Z,11.33
2018-04-14T02:56:58.496Z,11.28
2018-04-14T02:59:26.077Z,11.24
2018-04-14T03:01:53.657Z,11.30
2018-04-14T03:04:22.009Z,11.30
2018-04-14T03:06:49.601Z,11.39
2018-04-14T03:09:17.284Z,11.43
2018-04-14T03:11:44.867Z,11.41
2018-04-14T03:14:13.401Z,11.36
2018-04-14T03:16:40.981Z,11.35
2018-04-14T03:19:08.563Z,11.37
2018-04-14T03:21:36.148Z,11.43
2018-04-14T03:24:03.734Z,11.42
2018-04-14T03:26:31.319Z,11.36
2018-04-14T03:28:58.898Z,11.43
2018-04-14T03:31:26.491Z,11.43
2018-04-14T03:33:54.109Z,11.44
2018-04-14T03:36:21.753Z,11.45
2018-04-14T03:38:49.381Z,11.60
2018-04-14T03:41:17.089Z,11.59
2018-04-14T03:43:44.670Z,11.63
2018-04-14T03:46:12.248Z,11.66
2018-04-14T03:48:39.824Z,11.66
2018-04-14T03:51:07.461Z,11.64
2018-04-14T03:53:35.081Z,11.63
2018-04-14T03:56:02.886Z,11.68
2018-04-14T03:58:30.470Z,11.58
2018-04-14T04:00:58.049Z,11.58
2018-04-14T04:03:25.634Z,11.53
2018-04-14T04:05:53.277Z,11.57
2018-04-14T04:08:21.016Z,11.52
2018-04-14T04:10:48.597Z,11.54
2018-04-14T04:13:16.174Z,11.48
2018-04-14T04:15:43.817Z,11.51
2018-04-14T04:18:11.364Z,11.50
2018-04-14T04:20:57.881Z,11.43
2018-04-14T04:23:37.290Z,11.38
2018-04-14T04:26:04.936Z,11.23
2018-04-14T04:28:33.369Z,11.33
2018-04-14T04:31:01.926Z,11.35
2018-04-14T04:33:29.510Z,11.34
2018-04-14T04:35:57.093Z,11.40
2018-04-14T04:38:25.585Z,11.36
2018-04-14T04:40:53.172Z,11.37
2018-04-14T04:43:22.019Z,11.50
2018-04-14T04:45:49.638Z,11.43
2018-04-14T04:48:18.133Z,11.48
2018-04-14T04:50:45.714Z,11.55
2018-04-14T04:53:13.332Z,11.49
2018-04-14T04:55:40.942Z,11.50
2018-04-14T04:58:08.538Z,11.47
2018-04-14T05:00:36.121Z,11.56
2018-04-14T05:03:03.704Z,11.52
2018-04-14T05:05:31.289Z,11.46
2018-04-14T05:07:58.907Z,11.50
2018-04-14T05:10:26.509Z,11.44
2018-04-14T05:12:54.892Z,11.47
2018-04-14T05:15:23.253Z,11.43
2018-04-14T05:17:50.871Z,11.36
2018-04-14T05:20:18.456Z,11.43
2018-04-14T05:22:46.088Z,11.38
2018-04-14T05:25:13.709Z,11.40
2018-04-14T05:27:41.291Z,11.50
2018-04-14T05:30:08.928Z,11.45
2018-04-14T05:32:36.525Z,11.43
2018-04-14T05:35:04.193Z,11.43
2018-04-14T05:37:31.781Z,11.42
2018-04-14T05:39:59.397Z,11.35
2018-04-14T05:42:27.004Z,11.36
2018-04-14T05:44:54.647Z,11.43
2018-04-14T05:47:23.194Z,11.38
2018-04-14T05:49:50.784Z,11.35
2018-04-14T05:52:18.365Z,11.40
2018-04-14T05:54:45.949Z,11.48
2018-04-14T05:57:13.537Z,11.56
2018-04-14T05:59:41.196Z,11.56
2018-04-14T06:02:08.761Z,11.59
2018-04-14T06:04:36.377Z,11.59
2018-04-14T06:07:03.961Z,11.57
2018-04-14T06:09:31.582Z,11.64
2018-04-14T06:11:59.171Z,11.54
2018-04-14T06:14:26.792Z,11.49
2018-04-14T06:16:55.317Z,11.56
2018-04-14T06:19:22.897Z,11.67
2018-04-14T06:21:51.371Z,11.77
2018-04-14T06:24:18.949Z,11.69
2018-04-14T06:26:46.534Z,11.69
2018-04-14T06:29:14.173Z,11.73
2018-04-14T06:31:41.777Z,11.77
2018-04-14T06:34:09.367Z,11.97
2018-04-14T06:36:36.948Z,12.02
2018-04-14T06:39:04.530Z,12.08
2018-04-14T06:41:32.160Z,12.07
2018-04-14T06:43:59.753Z,12.19
2018-04-14T06:46:27.385Z,12.26
2018-04-14T06:48:54.989Z,12.29
2018-04-14T06:51:22.576Z,12.45
2018-04-14T06:53:50.937Z,12.57
2018-04-14T06:56:18.517Z,12.59
2018-04-14T06:58:46.104Z,12.61
2018-04-14T07:01:13.690Z,12.57
2018-04-14T07:03:41.310Z,12.51
2018-04-14T07:06:08.901Z,12.51
2018-04-14T07:08:36.514Z,12.53
2018-04-14T07:11:04.101Z,12.60
2018-04-14T07:13:32.064Z,12.47
2018-04-14T07:15:59.649Z,12.44
2018-04-14T07:18:27.506Z,12.46
2018-04-14T07:20:55.086Z,12.50
2018-04-14T07:23:22.691Z,12.45
2018-04-14T07:25:50.309Z,12.56
2018-04-14T07:28:17.925Z,12.49
2018-04-14T07:30:45.512Z,12.63
2018-04-14T07:33:13.225Z,12.95
2018-04-14T07:35:40.914Z,13.04
2018-04-14T07:38:08.500Z,13.25
2018-04-14T07:40:36.085Z,13.34
2018-04-14T07:43:03.815Z,13.54
2018-04-14T07:45:31.516Z,13.75
2018-04-14T07:47:59.106Z,13.84
2018-04-14T07:50:26.961Z,14.03
2018-04-14T07:52:54.549Z,14.29
2018-04-14T07:55:22.185Z,14.32
2018-04-14T07:57:49.851Z,14.37
2018-04-14T08:00:17.440Z,14.38
2018-04-14T08:02:45.061Z,14.68
2018-04-14T08:05:12.730Z,14.81
2018-04-14T08:07:40.936Z,14.94
2018-04-14T08:10:08.585Z,15.10
2018-04-14T08:12:36.258Z,15.25
2018-04-14T08:15:03.865Z,15.35
2018-04-14T08:17:32.624Z,15.43
2018-04-14T08:20:00.206Z,15.39
2018-04-14T08:22:27.861Z,15.10
2018-04-14T08:24:55.441Z,15.01
2018-04-14T08:27:23.129Z,15.02
2018-04-14T08:29:50.761Z,15.17
2018-04-14T08:32:18.349Z,14.91
2018-04-14T08:34:45.933Z,15.21
2018-04-14T08:37:14.307Z,15.37
2018-04-14T08:39:41.867Z,15.32
2018-04-14T08:42:09.513Z,15.32
2018-04-14T08:44:37.454Z,15.43
2018-04-14T08:47:05.834Z,15.66
2018-04-14T08:49:33.990Z,15.41
2018-04-14T08:52:02.046Z,15.56
2018-04-14T08:54:30.684Z,15.65
2018-04-14T08:56:58.353Z,15.76
2018-04-14T08:59:26.562Z,16.00
2018-04-14T09:01:55.721Z,16.21
2018-04-14T09:04:23.398Z,16.51
2018-04-14T09:06:51.069Z,16.90
2018-04-14T09:09:18.909Z,17.28
2018-04-14T09:11:47.667Z,17.54
2018-04-14T09:14:16.333Z,17.53
2018-04-14T09:16:44.069Z,17.42
2018-04-14T09:19:11.806Z,17.11
2018-04-14T09:21:40.313Z,16.94
2018-04-14T09:24:07.894Z,17.09
2018-04-14T09:26:35.501Z,17.21
2018-04-14T09:29:04.870Z,17.10
2018-04-14T09:31:33.331Z,16.85
2018-04-14T09:34:00.913Z,16.90
2018-04-14T09:36:29.733Z,17.06
2018-04-14T09:38:57.450Z,17.16
2018-04-14T09:41:25.706Z,16.96
2018-04-14T09:43:53.285Z,16.96
2018-04-14T09:46:21.758Z,17.12
2018-04-14T09:48:50.275Z,17.38
2018-04-14T09:51:17.857Z,17.60
2018-04-14T09:53:45.437Z,17.72
2018-04-14T09:56:13.124Z,17.56
2018-04-14T09:58:40.705Z,17.97
2018-04-14T10:01:14.881Z,18.00
2018-04-14T10:03:48.075Z,17.86
2018-04-14T10:06:15.660Z,18.05
2018-04-14T10:08:44.077Z,18.13
2018-04-14T10:11:11.672Z,18.10
2018-04-14T10:13:39.257Z,18.26
2018-04-14T10:16:06.849Z,18.27
2018-04-14T10:18:34.437Z,18.28
2018-04-14T10:21:02.017Z,18.19
2018-04-14T10:23:29.638Z,18.01
2018-04-14T10:25:57.249Z,18.02
2018-04-14T10:28:24.837Z,18.08
2018-04-14T10:30:52.528Z,18.21
2018-04-14T10:33:20.209Z,18.09
2018-04-14T10:35:47.793Z,18.04
2018-04-14T10:38:15.417Z,18.49
2018-04-14T10:40:43.000Z,18.68
2018-04-14T10:43:10.585Z,18.93
2018-04-14T10:45:38.203Z,19.06
2018-04-14T10:48:05.801Z,18.98
2018-04-14T10:50:33.389Z,18.79
2018-04-14T10:53:01.055Z,18.60
2018-04-14T10:55:28.673Z,18.53
2018-04-14T10:57:56.252Z,18.70
2018-04-14T11:00:23.862Z,19.02
2018-04-14T11:02:51.507Z,19.08
2018-04-14T11:05:19.086Z,18.98
2018-04-14T11:07:46.699Z,18.59
2018-04-14T11:10:15.222Z,18.67
2018-04-14T11:12:42.867Z,18.95
2018-04-14T11:15:10.466Z,19.21
2018-04-14T11:17:38.062Z,19.34
2018-04-14T11:20:05.649Z,19.25
2018-04-14T11:22:33.313Z,18.98
2018-04-14T11:25:00.980Z,19.05
2018-04-14T11:27:28.651Z,19.07
2018-04-14T11:29:56.239Z,19.02
2018-04-14T11:32:24.635Z,18.90
2018-04-14T11:34:52.250Z,18.90
2018-04-14T11:37:20.761Z,18.94
2018-04-14T11:39:49.290Z,18.99
2018-04-14T11:42:16.906Z,19.22
2018-04-14T11:44:44.491Z,18.98
2018-04-14T11:47:12.077Z,18.74
2018-04-14T11:49:39.754Z,18.98
2018-04-14T11:52:07.366Z,19.55
2018-04-14T11:54:34.952Z,19.89
2018-04-14T11:57:02.535Z,20.08
2018-04-14T11:59:30.206Z,19.83
2018-04-14T12:01:57.797Z,19.82
2018-04-14T12:04:25.377Z,19.94
2018-04-14T12:06:52.997Z,20.36
2018-04-14T12:09:20.657Z,20.66
2018-04-14T12:11:48.237Z,20.53
2018-04-14T12:14:16.694Z,20.55
2018-04-14T12:16:45.053Z,20.43
2018-04-14T12:19:12.637Z,20.65
2018-04-14T12:21:41.069Z,20.84
2018-04-14T12:24:08.682Z,20.99
2018-04-14T12:26:36.337Z,20.86
2018-04-14T12:29:03.918Z,20.98
2018-04-14T12:31:31.525Z,20.46
2018-04-14T12:33:59.109Z,20.61
2018-04-14T12:36:26.721Z,20.86
2018-04-14T12:38:54.353Z,21.00
2018-04-14T12:41:21.935Z,21.37
2018-04-14T12:43:49.526Z,21.28
2018-04-14T12:46:17.130Z,21.02
2018-04-14T12:48:44.714Z,20.87
2018-04-14T12:51:12.409Z,20.70
2018-04-14T12:53:39.996Z,20.13
2018-04-14T12:56:07.735Z,19.94
2018-04-14T12:58:35.317Z,19.54
2018-04-14T13:01:02.909Z,19.32
2018-04-14T13:03:30.485Z,19.19
2018-04-14T13:05:58.138Z,18.67
2018-04-14T13:08:25.725Z,17.88
2018-04-14T13:10:54.082Z,17.54
2018-04-14T13:13:21.657Z,17.21
2018-04-14T13:15:49.293Z,16.84
2018-04-14T13:18:16.873Z,16.59
2018-04-14T13:20:45.438Z,16.46
2018-04-14T13:23:13.018Z,16.24
2018-04-14T13:25:40.613Z,16.16
2018-04-14T13:28:08.882Z,16.19
2018-04-14T13:30:37.229Z,16.07
2018-04-14T13:33:04.818Z,15.83
2018-04-14T13:35:32.495Z,15.92
2018-04-14T13:38:00.072Z,15.70
2018-04-14T13:40:27.690Z,15.94
2018-04-14T13:42:55.273Z,15.88
2018-04-14T13:45:22.893Z,16.07
2018-04-14T13:47:50.549Z,16.26
2018-04-14T13:50:18.139Z,16.55
2018-04-14T13:52:47.077Z,16.60
2018-04-14T13:55:14.692Z,17.09
2018-04-14T13:57:42.280Z,17.24
2018-04-14T14:00:09.909Z,17.47
2018-04-14T14:02:37.566Z,17.23
2018-04-14T14:05:05.149Z,17.18
2018-04-14T14:07:32.761Z,17.75
2018-04-14T14:10:00.342Z,17.83
2018-04-14T14:12:27.978Z,17.77
2018-04-14T14:14:55.569Z,17.98
2018-04-14T14:17:23.241Z,18.29
2018-04-14T14:19:50.858Z,18.70
2018-04-14T14:22:18.449Z,18.74
2018-04-14T14:24:46.977Z,18.95
2018-04-14T14:27:15.581Z,19.02
2018-04-14T14:29:43.165Z,19.02
2018-04-14T14:32:11.346Z,18.90
2018-04-14T14:34:39.849Z,18.57
2018-04-14T14:37:07.499Z,18.57
2018-04-14T14:39:35.907Z,18.80
2018-04-14T14:42:04.221Z,19.32
2018-04-14T14:44:32.685Z,19.44
2018-04-14T14:47:00.315Z,19.61
2018-04-14T14:49:27.937Z,19.35
2018-04-14T14:51:55.645Z,18.92
2018-04-14T14:54:24.380Z,18.41
2018-04-14T14:56:52.805Z,18.27
2018-04-14T14:59:20.409Z,18.26
2018-04-14T15:01:47.993Z,18.54
2018-04-14T15:04:15.578Z,19.29
2018-04-14T15:06:43.254Z,19.67
2018-04-14T15:09:10.884Z,19.75
2018-04-14T15:11:39.436Z,19.70
2018-04-14T15:14:07.917Z,19.37
2018-04-14T15:16:35.534Z,19.36
2018-04-14T15:19:03.164Z,19.19
2018-04-14T15:21:31.642Z,19.02
2018-04-14T15:24:00.245Z,18.91
2018-04-14T15:26:28.547Z,19.29
2018-04-14T15:28:56.181Z,19.90
2018-04-14T15:31:23.881Z,20.53
2018-04-14T15:33:51.535Z,20.72
2018-04-14T15:36:19.200Z,21.35
2018-04-14T15:38:46.789Z,21.32
2018-04-14T15:41:14.427Z,21.24
2018-04-14T15:43:42.125Z,20.57
2018-04-14T15:46:09.752Z,19.98
2018-04-14T15:48:56.412Z,19.92
2018-04-14T15:51:23.997Z,19.74
2018-04-14T15:53:51.587Z,19.75
2018-04-14T15:56:19.171Z,19.85
2018-04-14T15:58:46.843Z,19.71
2018-04-14T16:01:14.505Z,19.43
2018-04-14T16:03:44.725Z,19.39
2018-04-14T16:06:09.974Z,19.42
2018-04-14T16:08:37.566Z,19.75
2018-04-14T16:11:05.962Z,19.85
2018-04-14T16:13:33.555Z,20.00
2018-04-14T16:16:01.681Z,19.99
2018-04-14T16:18:29.272Z,19.77
2018-04-14T16:20:57.788Z,19.90
2018-04-14T16:23:25.374Z,19.42
2018-04-14T16:25:52.963Z,19.08
2018-04-14T16:28:20.578Z,19.10
2018-04-14T16:30:48.221Z,19.05
2018-04-14T16:33:15.932Z,18.89
2018-04-14T16:35:43.572Z,18.72
2018-04-14T16:38:11.266Z,18.52
2018-04-14T16:40:38.850Z,18.55
2018-04-14T16:43:06.617Z,18.41
2018-04-14T16:45:34.296Z,18.38
2018-04-14T16:48:01.888Z,18.34
2018-04-14T16:50:29.509Z,18.31
2018-04-14T16:52:57.387Z,18.11
2018-04-14T16:55:24.976Z,17.85
2018-04-14T16:57:53.030Z,17.69
2018-04-14T17:00:20.619Z,17.54
2018-04-14T17:02:48.265Z,17.42
2018-04-14T17:05:15.862Z,17.29
2018-04-14T17:07:43.492Z,17.18
2018-04-14T17:10:11.112Z,17.04
2018-04-14T17:12:38.693Z,16.93
2018-04-14T17:15:06.278Z,16.86
2018-04-14T17:17:33.882Z,16.78
2018-04-14T17:20:01.474Z,16.70
2018-04-14T17:22:29.178Z,16.56
2018-04-14T17:24:56.969Z,16.45
2018-04-14T17:27:24.554Z,16.30
2018-04-14T17:29:52.917Z,16.12
2018-04-14T17:32:20.503Z,15.96
2018-04-14T17:34:49.849Z,15.85
2018-04-14T17:37:17.430Z,15.72
2018-04-14T17:39:45.022Z,15.62
2018-04-14T17:42:12.683Z,15.52
2018-04-14T17:44:40.269Z,15.43
2018-04-14T17:47:07.898Z,15.32
2018-04-14T17:49:36.396Z,15.24
2018-04-14T17:52:04.047Z,15.11
2018-04-14T17:54:31.678Z,14.99
2018-04-14T17:56:59.326Z,14.85
2018-04-14T17:59:26.972Z,14.73
2018-04-14T18:01:54.609Z,14.62
2018-04-14T18:04:22.205Z,14.51
2018-04-14T18:06:49.794Z,14.42
2018-04-14T18:09:17.382Z,14.36
2018-04-14T18:11:45.057Z,14.33
2018-04-14T18:14:12.640Z,14.31
2018-04-14T18:16:40.431Z,14.26
2018-04-14T18:19:08.071Z,14.21
2018-04-14T18:21:35.752Z,14.13
2018-04-14T18:24:03.372Z,13.96
2018-04-14T18:26:30.973Z,13.86
2018-04-14T18:28:58.632Z,13.75
2018-04-14T18:31:26.298Z,13.65
2018-04-14T18:33:53.897Z,13.60
2018-04-14T18:36:21.601Z,13.59
2018-04-14T18:38:49.186Z,13.57
2018-04-14T18:41:16.794Z,13.51
2018-04-14T18:43:44.410Z,13.48
2018-04-14T18:46:12.034Z,13.46
2018-04-14T18:48:39.627Z,13.43
2018-04-14T18:51:07.688Z,13.35
2018-04-14T18:53:35.304Z,13.28
2018-04-14T18:56:02.933Z,13.14
2018-04-14T18:58:30.703Z,13.09
2018-04-14T19:00:58.303Z,13.12
2018-04-14T19:03:25.964Z,12.98
2018-04-14T19:05:53.575Z,12.94
2018-04-14T19:08:21.217Z,12.85
2018-04-14T19:10:49.589Z,12.79
2018-04-14T19:13:17.238Z,12.68
2018-04-14T19:15:44.829Z,12.61
2018-04-14T19:18:12.419Z,12.59
2018-04-14T19:20:40.002Z,12.58
2018-04-14T19:23:07.589Z,12.57
2018-04-14T19:25:35.178Z,12.55
2018-04-14T19:28:02.762Z,12.54
2018-04-14T19:30:30.347Z,12.44
2018-04-14T19:32:58.029Z,12.37
2018-04-14T19:35:25.626Z,12.30
2018-04-14T19:37:53.273Z,12.28
2018-04-14T19:40:20.909Z,12.33
2018-04-14T19:42:48.503Z,12.25
2018-04-14T19:45:16.685Z,12.18
2018-04-14T19:47:44.282Z,12.12
2018-04-14T19:50:11.869Z,12.19
2018-04-14T19:52:39.463Z,12.41
2018-04-14T19:55:07.054Z,12.43
2018-04-14T19:57:34.695Z,12.25
2018-04-14T20:00:02.334Z,12.13
2018-04-14T20:02:29.935Z,12.10
2018-04-14T20:04:57.518Z,12.06
2018-04-14T20:07:25.977Z,11.94
2018-04-14T20:09:53.598Z,11.88
2018-04-14T20:12:23.220Z,11.84
2018-04-14T20:14:51.966Z,11.82
2018-04-14T20:17:20.468Z,11.76
2018-04-14T20:19:49.604Z,11.74
2018-04-14T20:22:18.809Z,11.77
2018-04-14T20:24:47.654Z,11.79
2018-04-14T20:27:16.881Z,11.81
2018-04-14T20:29:45.659Z,11.82
2018-04-14T20:32:14.547Z,11.79
2018-04-14T20:34:43.134Z,11.68
2018-04-14T20:37:11.612Z,11.61
2018-04-14T20:39:40.422Z,11.63
2018-04-14T20:42:08.891Z,11.64
2018-04-14T20:44:38.405Z,11.68
2018-04-14T20:47:07.289Z,11.65
2018-04-14T20:49:36.270Z,11.54
2018-04-14T20:52:05.728Z,11.52
2018-04-14T20:54:35.262Z,11.47
2018-04-14T20:57:03.836Z,11.57
2018-04-14T20:59:32.448Z,11.75
2018-04-14T21:02:01.260Z,11.74
2018-04-14T21:04:30.435Z,11.74
2018-04-14T21:06:59.162Z,11.64
2018-04-14T21:09:27.839Z,11.53
2018-04-14T21:11:56.221Z,11.41
2018-04-14T21:14:25.051Z,11.57
2018-04-14T21:16:54.692Z,11.49
2018-04-14T21:19:23.558Z,11.48
2018-04-14T21:21:52.236Z,11.41
2018-04-14T21:24:21.211Z,11.41
2018-04-14T21:26:50.187Z,11.37
2018-04-14T21:29:18.944Z,11.33
2018-04-14T21:31:47.466Z,11.25
2018-04-14T21:34:16.382Z,11.24
2018-04-14T21:36:44.859Z,11.21
2018-04-14T21:39:13.705Z,11.19
2018-04-14T21:41:42.677Z,11.14
2018-04-14T21:44:11.529Z,11.16
2018-04-14T21:46:40.929Z,11.14
2018-04-14T21:49:09.744Z,11.10
2018-04-14T21:51:38.790Z,10.98
2018-04-14T21:54:07.768Z,10.98
2018-04-14T21:56:36.775Z,10.96
2018-04-14T21:59:06.486Z,10.98
2018-04-14T22:01:34.975Z,10.93
2018-04-14T22:04:03.867Z,10.95
2018-04-14T22:06:33.955Z,10.93
2018-04-14T22:09:02.842Z,10.88
2018-04-14T22:11:31.455Z,10.80
2018-04-14T22:13:59.114Z,10.82
2018-04-14T22:16:26.969Z,10.81
2018-04-14T22:18:54.582Z,10.69
2018-04-14T22:21:22.326Z,10.66
2018-04-14T22:23:49.959Z,10.66
2018-04-14T22:26:18.549Z,10.55
2018-04-14T22:28:47.036Z,10.53
2018-04-14T22:31:14.616Z,10.40
2018-04-14T22:33:42.799Z,10.38
2018-04-14T22:36:10.389Z,10.36
2018-04-14T22:38:38.051Z,10.37
2018-04-14T22:41:05.685Z,10.31
2018-04-14T22:43:33.345Z,10.48
2018-04-14T22:46:00.941Z,10.44
2018-04-14T22:48:28.534Z,10.39
2018-04-14T22:50:56.125Z,10.34
2018-04-14T22:53:23.720Z,10.35
2018-04-14T22:55:51.305Z,10.30
2018-04-14T22:58:18.908Z,10.31
2018-04-14T23:00:46.594Z,10.48
2018-04-14T23:03:14.172Z,10.59
2018-04-14T23:05:41.817Z,10.64
2018-04-14T23:08:09.465Z,10.49
2018-04-14T23:10:37.086Z,10.51
2018-04-14T23:13:04.677Z,10.48
2018-04-14T23:15:32.409Z,10.27
2018-04-14T23:17:59.999Z,10.22
2018-04-14T23:20:27.585Z,10.14
2018-04-14T23:22:55.181Z,10.18
2018-04-14T23:25:22.814Z,10.05
2018-04-14T23:27:50.433Z,9.96
2018-04-14T23:30:18.086Z,9.90
2018-04-14T23:32:45.697Z,9.87
2018-04-14T23:35:13.286Z,9.87
2018-04-14T23:37:40.903Z,9.94
2018-04-14T23:40:08.534Z,9.89
2018-04-14T23:42:36.113Z,9.85
2018-04-14T23:45:03.757Z,9.79
2018-04-14T23:47:32.245Z,9.84
2018-04-14T23:50:00.772Z,9.79
2018-04-14T23:52:28.357Z,9.80
2018-04-14T23:54:55.970Z,9.81
2018-04-14T23:57:23.556Z,9.84
2018-04-14T23:59:51.160Z,9.73
